Tiempo atmosférico en la estación meteorológica de Motilla Del Palancar, Cuenca (830 m.)



Fecha
DESCASC
Temp. máxima en grados centígrados (hora)
DESCASC
Temp. mínima en grados centígrados (hora)
DESCASC
Temp. media en grados centígrados
DESCASC
Racha de viento máxima en m/sg (hora)
DESCASC
Velocidad máxima media en intervalos de 10 minutos(hora)
DESCASC
Precipitaciones diarias en mm
DESCASC
Precipitaciones de 00:00 a 06:00 en mm
DESCASC
Precipitaciones de 06:00 a 12:00 en mm
DESCASC
Precipitaciones de 12:00 a 18:00 en mm
DESCASC
Precipitaciones de 18:00 a 24:00 en mm
DESCASC
13-06-2019 24.8 (17:20) 11.8 (00:40) 18.3 10 (19:10) 5.83 (19:20) 0 0 0 0 0
12-06-2019 24.6 (17:40) 5.8 (07:00) 15.2 12.22 (21:00) 6.67 (21:00) 0 0 0 0 0
11-06-2019 23.1 (14:50) 7.4 (06:50) 15.3 9.72 (16:20) 5.56 (16:20) 0 0 0 0 0
10-06-2019 26.2 (16:20) 6 (07:20) 16.1 11.39 (18:50) 5 (11:50) 0 0 0 0 0
09-06-2019 27.3 (17:10) 11.4 (00:00) 19.3 10 (17:20) 6.39 (18:50) 0 0 0 0 0
08-06-2019 23.3 (15:00) 11.1 (00:00) 17.2 12.78 (10:30) 7.78 (09:30) 0 0 0 0 0
07-06-2019 22 (17:40) 6.9 (00:00) 14.5 12.22 (15:30) 6.11 (09:10) 0 0 0 0 0
06-06-2019 26 (18:40) 4 (00:00) 15 11.67 (14:50) 6.67 (14:50) 0 0 0 0 0
05-06-2019 20.5 (16:30) 9.7 (00:00) 15.1 13.61 (14:00) 7.78 (10:40) 0 0 0 0 0
04-06-2019 31 (16:40) 10.7 (00:00) 20.8 11.39 (15:40) 7.22 (15:30) 0 0 0 0 0
03-06-2019 32.9 (16:50) 12.6 (00:00) 22.8 9.17 (15:10) 5 (15:10) 0 0 0 0 0
02-06-2019 31.3 (17:30) 10.5 (00:00) 20.9 9.44 (21:40) 5.28 (19:10) 0 0 0 0 0
01-06-2019 29.3 (17:00) 10.7 (00:00) 20 8.33 (17:10) 5 (20:50) 0 0 0 0 0
31-05-2019 27.7 (16:50) 7.8 (00:00) 17.8 10 (23:00) 5.56 (22:20) 0 0 0 0 0
30-05-2019 26.3 (18:30) 8.9 (00:00) 17.6 8.06 (21:30) 4.72 (21:40) 0 0 0 0 0
29-05-2019 24.8 (18:30) 6.1 (00:00) 15.4 8.33 (09:20) 4.44 (09:40) 0 0 0 0 0
28-05-2019 25.9 (17:20) 11.7 (00:00) 18.8 11.67 (15:40) 6.11 (19:50) 0 0 0 0 0
27-05-2019 27.8 (16:50) 7 (00:00) 17.4 10.56 (17:20) 5.28 (17:10) 0 0 0 0 0
26-05-2019 24.8 (17:40) 8.2 (00:00) 16.5 6.67 (12:00) 3.89 (12:00) 0 0 0 0 0
25-05-2019 22.2 (16:00) 5.7 (00:00) 14 9.44 (10:30) 4.44 (10:00) 0 0 0 0 0
24-05-2019 20 (13:10) 10.5 (00:00) 15.3 10 (15:10) 5.83 (16:30) 0.2 0 0 0 0.2
23-05-2019 26.8 (18:30) 11 (00:00) 18.9 8.33 (18:30) 4.17 (14:40) 0 0 0 0 0
22-05-2019 25.6 (18:20) 8.6 (00:00) 17.1 7.5 (22:30) 3.89 (22:30) 0.4 0.2 0.2 0 0
21-05-2019 22.7 (18:00) 11.2 (23:59) 17 11.11 (21:20) 6.11 (21:00) 0.2 0 0 0 0.2
20-05-2019 20.9 (16:50) 5.6 (02:40) 13.2 7.5 (18:00) 4.17 (14:20) 0 0 0 0 0
19-05-2019 18.1 (18:50) 2.1 (00:00) 10.1 11.67 (14:00) 5.28 (14:20) 0 0 0 0 0
18-05-2019 17 (16:50) 4.3 (00:00) 10.7 11.11 (17:40) 5.28 (15:10) 0 0 0 0 0
17-05-2019 19.4 (00:00) 7.4 (00:00) 13.4 16.11 (10:00) 8.89 (11:40) 0 0 0 0 0

Gráficas

Temp. máximas Temp. mínimas Temp. medias Precipitaciones Rachas de viento máximas Velocidades máximas media en intervalos de 10 minutos

Datos horarios

Fecha y hora oficial Temperatura (ºC) Velocidad del viento (km/h) Dirección del viento Racha (km/h) Dirección de racha Precipitación (mm) Presión (hPa) Tendencia (hPa) Humedad (%)
2019-06-15 23:00:00 15.7 0 Calma 10 Noroeste 0 -- -- 34
2019-06-15 22:00:00 20.1 7 Noroeste 16 Noroeste 0 -- -- 27
2019-06-15 21:00:00 22.6 10 Noroeste 17 Noroeste 0 -- -- 24
2019-06-15 20:00:00 24 10 Oeste 21 Noroeste 0 -- -- 23
2019-06-15 19:00:00 24.5 12 Noroeste 28 Sudoeste 0 -- -- 23
2019-06-15 18:00:00 24.5 11 Oeste 30 Oeste 0 -- -- 24
2019-06-15 17:00:00 24.6 15 Oeste 27 Oeste 0 -- -- 23
2019-06-15 16:00:00 24 10 Oeste 29 Noroeste 0 -- -- 25
2019-06-15 15:00:00 22.6 14 Noroeste 28 Noroeste 0 -- -- 28
2019-06-15 14:00:00 21.9 13 Oeste 28 Oeste 0 -- -- 29
2019-06-15 13:00:00 20.7 12 Oeste 29 Oeste 0 -- -- 34
2019-06-15 12:00:00 19 14 Oeste 31 Oeste 0 -- -- 37
2019-06-15 11:00:00 17.6 14 Oeste 28 Noroeste 0 -- -- 40
2019-06-15 10:00:00 16.2 12 Oeste 26 Noroeste 0 -- -- 45
2019-06-15 09:00:00 13.9 14 Noroeste 29 Noroeste 0 -- -- 54
2019-06-15 08:00:00 11.3 13 Noroeste 26 Noroeste 0 -- -- 60
2019-06-15 07:00:00 10.3 9 Oeste 23 Noroeste 0 -- -- 59
2019-06-15 06:00:00 10.8 9 Noroeste 19 Oeste 0 -- -- 57
2019-06-15 05:00:00 11.5 7 Oeste 23 Noroeste 0 -- -- 54
2019-06-15 04:00:00 12.1 9 Noroeste 18 Noroeste 0 -- -- 52
2019-06-15 03:00:00 12.9 5 Oeste 15 Oeste 0 -- -- 49
2019-06-15 02:00:00 13.6 4 Oeste 13 Oeste 0 -- -- 45
2019-06-15 01:00:00 15.1 5 Oeste 21 Oeste 0 -- -- 41
2019-06-15 00:00:00 16.5 8 Oeste 18 Oeste 0 -- -- 38
2019-06-14 23:00:00 17.4 4 Oeste 15 Oeste 0 -- -- 36
2019-06-14 22:00:00 19.7 7 Oeste 25 Oeste 0 -- -- 33
2019-06-14 21:00:00 22.2 17 Oeste 36 Sudoeste 0 -- -- 29
2019-06-14 20:00:00 24 23 Sudoeste 38 Sudoeste 0 -- -- 22
2019-06-14 19:00:00 25.2 22 Sudoeste 43 Oeste 0 -- -- 22
2019-06-14 18:00:00 26.2 20 Oeste 46 Sudoeste 0 -- -- 24
2019-06-14 17:00:00 26.5 22 Oeste 45 Sudoeste 0 -- -- 21
2019-06-14 16:00:00 26.4 20 Sudoeste 41 Oeste 0 -- -- 26
2019-06-14 15:00:00 25.1 15 Oeste 33 Oeste 0 -- -- 30
2019-06-14 14:00:00 24.4 16 Oeste 35 Oeste 0 -- -- 30
2019-06-14 13:00:00 23.7 19 Oeste 39 Sudoeste 0 -- -- 33
2019-06-14 12:00:00 22.2 15 Oeste 38 Oeste 0 -- -- 37
2019-06-14 11:00:00 20.1 16 Oeste 27 Oeste 0 -- -- 48
2019-06-14 10:00:00 17.3 11 Oeste 20 Oeste 0 -- -- 61
2019-06-14 09:00:00 15 10 Sudoeste 16 Sudoeste 0 -- -- 61
2019-06-14 08:00:00 14 9 Sur 14 Sur 0 -- -- 77
2019-06-14 07:00:00 13.4 4 Sur 13 Sudeste 0 -- -- 83
2019-06-14 06:00:00 13.7 4 Nordeste 10 Nordeste 0 -- -- 81
2019-06-14 05:00:00 13.2 6 Norte 10 Norte 0 -- -- 84
2019-06-14 04:00:00 12.3 3 Este 8 Sudoeste 0 -- -- 86
2019-06-14 03:00:00 12.9 4 Este 15 Este 0 -- -- 81
2019-06-14 02:00:00 13.6 5 Este 18 Este 0 -- -- 80
2019-06-14 01:00:00 14.1 5 Este 30 Este 0 -- -- 78
2019-06-14 00:00:00 15.1 9 Sudeste 21 Este 0 -- -- 77
2019-06-13 23:00:00 16.1 12 Este 29 Este 0 -- -- 73
2019-06-13 22:00:00 17.4 12 Este 28 Este 0 -- -- 65
2019-06-13 21:00:00 19.2 19 Sudeste 32 Sudeste 0 -- -- 58
2019-06-13 20:00:00 21.4 18 Este 36 Sudeste 0 -- -- 53
2019-06-13 19:00:00 24 15 Sudeste 29 Este 0 -- -- 44
2019-06-13 18:00:00 23.8 12 Sudeste 27 Este 0 -- -- 45
2019-06-13 17:00:00 24.4 9 Este 28 Este 0 -- -- 43
2019-06-13 16:00:00 23.2 12 Sudeste 26 Sudeste 0 -- -- 45
2019-06-13 15:00:00 22.7 12 Sudeste 33 Este 0 -- -- 47
2019-06-13 14:00:00 22.4 16 Sudeste 31 Sudeste 0 -- -- 49
2019-06-13 13:00:00 20.9 15 Sudeste 30 Sudeste 0 -- -- 51
2019-06-13 12:00:00 19.8 15 Sudeste 31 Sudeste 0 -- -- 55
2019-06-13 11:00:00 18.3 14 Sudeste 31 Sudeste 0 -- -- 59
2019-06-13 10:00:00 16.9 17 Sudeste 32 Sudeste 0 -- -- 72
2019-06-13 09:00:00 14.8 14 Sudeste 26 Sudeste 0 -- -- 82
2019-06-13 08:00:00 13.6 12 Este 25 Este 0 -- -- 86
2019-06-13 07:00:00 13.1 13 Este 24 Sudeste 0 -- -- 85
2019-06-13 06:00:00 13.2 13 Este 23 Este 0 -- -- 84
2019-06-13 05:00:00 13.4 12 Este 26 Sudeste 0 -- -- 84
2019-06-13 04:00:00 13.2 13 Sudeste 27 Este 0 -- -- 85
2019-06-13 03:00:00 12.7 15 Este 28 Sudeste 0 -- -- 87
2019-06-13 02:00:00 12.5 12 Este 31 Este 0 -- -- 86
2019-06-13 01:00:00 12 10 Este 25 Este 0 -- -- 82
2019-06-13 00:00:00 12.6 10 Este 33 Este 0 -- -- 68
2019-06-12 23:00:00 13.7 13 Este 34 Sudeste 0 -- -- 56
2019-06-12 22:00:00 15 16 Este 40 Este 0 -- -- 61
2019-06-12 21:00:00 17.6 24 Este 44 Este 0 -- -- 53
2019-06-12 20:00:00 20.6 21 Sudeste 36 Sudeste 0 -- -- 46
2019-06-12 19:00:00 23.7 15 Sur 24 Sudeste 0 -- -- 29
2019-06-12 18:00:00 23.6 11 Sudoeste 29 Sur 0 -- -- 31
2019-06-12 17:00:00 23.2 14 Sur 28 Sur 0 -- -- 31
2019-06-12 16:00:00 22.6 13 Sur 29 Sur 0 -- -- 33
2019-06-12 15:00:00 22.3 13 Sur 29 Sudeste 0 -- -- 31
2019-06-12 14:00:00 20.8 15 Sudeste 32 Sudeste 0 -- -- 39
2019-06-12 13:00:00 19.7 14 Sudeste 29 Sudeste 0 -- -- 41
2019-06-12 12:00:00 18.4 14 Sudeste 24 Este 0 -- -- 41
2019-06-12 11:00:00 16.3 13 Sudeste 25 Este 0 -- -- 46
2019-06-12 10:00:00 14.7 12 Sudeste 23 Sudeste 0 -- -- 53
2019-06-12 09:00:00 11.3 7 Sudeste 18 Este 0 -- -- 69
2019-06-12 08:00:00 7.2 5 Nordeste 11 Nordeste 0 -- -- 68
2019-06-12 07:00:00 5.8 4 Nordeste 10 Nordeste 0 -- -- 70
2019-06-12 06:00:00 6.8 4 Nordeste 10 Nordeste 0 -- -- 67
2019-06-12 05:00:00 7.4 5 Nordeste 11 Nordeste 0 -- -- 65
2019-06-12 04:00:00 7.7 4 Nordeste 11 Nordeste 0 -- -- 63
2019-06-12 03:00:00 8.9 5 Nordeste 17 Nordeste 0 -- -- 58
2019-06-12 02:00:00 8.7 4 Este 10 Nordeste 0 -- -- 58
2019-06-12 01:00:00 9.2 5 Este 14 Este 0 -- -- 56
2019-06-12 00:00:00 10.9 6 Este 16 Este 0 -- -- 53
2019-06-11 23:00:00 12.1 5 Este 15 Este 0 -- -- 53
2019-06-11 22:00:00 14 6 Este 24 Este 0 -- -- 49
2019-06-11 21:00:00 18.5 7 Norte 23 Noroeste 0 -- -- 32
2019-06-11 20:00:00 18.9 14 Noroeste 29 Noroeste 0 -- -- 31
2019-06-11 19:00:00 19.7 12 Noroeste 32 Norte 0 -- -- 31
2019-06-11 18:00:00 19.3 13 Norte 30 Nordeste 0 -- -- 38
2019-06-11 17:00:00 19.4 13 Nordeste 35 Noroeste 0 -- -- 40
2019-06-11 16:00:00 20.6 16 Noroeste 33 Noroeste 0 -- -- 36
2019-06-11 15:00:00 23.1 15 Oeste 32 Oeste 0 -- -- 30
2019-06-11 14:00:00 22.3 15 Oeste 29 Noroeste 0 -- -- 31
2019-06-11 13:00:00 21.4 11 Noroeste 26 Oeste 0 -- -- 30
2019-06-11 12:00:00 20.3 12 Oeste 20 Oeste 0 -- -- 32
2019-06-11 11:00:00 18 4 Oeste 14 Sur 0 -- -- 38
2019-06-11 10:00:00 16.7 6 Sudoeste 14 Sudoeste 0 -- -- 52
2019-06-11 09:00:00 13.4 5 Oeste 10 Oeste 0 -- -- 50
2019-06-11 08:00:00 9.3 2 Nordeste 6 Este 0 -- -- 80
2019-06-11 07:00:00 7.4 3 Nordeste 6 Este 0 -- -- 79
2019-06-11 06:00:00 8.1 4 Este 6 Este 0 -- -- 75
2019-06-11 05:00:00 8.6 0 Calma 3 Norte 0 -- -- 76
2019-06-11 04:00:00 10.9 0 Calma 7 Nordeste 0 -- -- 66
2019-06-11 03:00:00 12.1 2 Norte 16 Este 0 -- -- 60
2019-06-11 02:00:00 12.5 10 Este 19 Este 0 -- -- 73
2019-06-11 01:00:00 12 3 Nordeste 7 Nordeste 0 -- -- 43
2019-06-11 00:00:00 13.5 4 Nordeste 6 Nordeste 0 -- -- 40
2019-06-10 23:00:00 16.3 2 Noroeste 8 Noroeste 0 -- -- 32
2019-06-10 22:00:00 19.5 4 Oeste 21 Noroeste 0 -- -- 27
2019-06-10 21:00:00 22.6 10 Oeste 25 Noroeste 0 -- -- 24
2019-06-10 20:00:00 24.1 13 Oeste 35 Oeste 0 -- -- 23
2019-06-10 19:00:00 24.9 13 Oeste 41 Oeste 0 -- -- 24
2019-06-10 18:00:00 25.4 16 Noroeste 29 Oeste 0 -- -- 24
2019-06-10 17:00:00 25.1 15 Oeste 33 Oeste 0 -- -- 25
2019-06-10 16:00:00 25.6 13 Oeste 29 Oeste 0 -- -- 24
2019-06-10 15:00:00 24.8 14 Oeste 32 Oeste 0 -- -- 25
2019-06-10 14:00:00 24.5 14 Oeste 37 Oeste 0 -- -- 26
2019-06-10 13:00:00 23 14 Noroeste 27 Noroeste 0 -- -- 28
2019-06-10 12:00:00 22.7 15 Oeste 33 Oeste 0 -- -- 25
2019-06-10 11:00:00 21.9 14 Oeste 27 Oeste 0 -- -- 26
2019-06-10 10:00:00 19.9 8 Noroeste 21 Noroeste 0 -- -- 34
2019-06-10 09:00:00 13.7 3 Noroeste 10 Noroeste 0 -- -- 48
2019-06-10 08:00:00 8 0 Calma 5 Este 0 -- -- 62
2019-06-10 07:00:00 6.1 0 Calma 6 Nordeste 0 -- -- 63
2019-06-10 06:00:00 7.3 3 Nordeste 6 Nordeste 0 -- -- 57
2019-06-10 05:00:00 7.8 0 Calma 3 Norte 0 -- -- 57
2019-06-10 04:00:00 8.9 0 Calma 6 Este 0 -- -- 52
2019-06-10 03:00:00 10.2 0 Calma 4 Noroeste 0 -- -- 46
2019-06-10 02:00:00 13.2 3 Noroeste 8 Oeste 0 -- -- 38
2019-06-10 01:00:00 14 3 Oeste 12 Oeste 0 -- -- 36
2019-06-10 00:00:00 17.2 6 Noroeste 12 Oeste 0 -- -- 31
2019-06-09 23:00:00 19 4 Noroeste 11 Oeste 0 -- -- 29
2019-06-09 22:00:00 21.2 5 Oeste 24 Oeste 0 -- -- 27
2019-06-09 21:00:00 23.5 12 Oeste 24 Oeste 0 -- -- 25
2019-06-09 20:00:00 25.3 14 Oeste 28 Sudoeste 0 -- -- 22
2019-06-09 19:00:00 26.2 20 Oeste 36 Sudoeste 0 -- -- 23
2019-06-09 18:00:00 27.2 14 Sudoeste 36 Oeste 0 -- -- 24
2019-06-09 17:00:00 27.1 14 Oeste 33 Sudoeste 0 -- -- 22
2019-06-09 16:00:00 27 16 Sudoeste 31 Oeste 0 -- -- 24
2019-06-09 15:00:00 26.2 15 Oeste 33 Sudoeste 0 -- -- 26
2019-06-09 14:00:00 25.5 12 Noroeste 30 Noroeste 0 -- -- 29
2019-06-09 13:00:00 24.8 15 Oeste 29 Oeste 0 -- -- 28
2019-06-09 12:00:00 22.8 10 Oeste 24 Sudoeste 0 -- -- 38
2019-06-09 11:00:00 18.9 9 Sudoeste 17 Sudoeste 0 -- -- 51
2019-06-09 10:00:00 17.1 4 Sur 9 Sur 0 -- -- 54
2019-06-09 09:00:00 13.5 2 Norte 9 Nordeste 0 -- -- 64
2019-06-09 08:00:00 12.1 5 Nordeste 10 Norte 0 -- -- 70
2019-06-09 07:00:00 11.5 4 Nordeste 12 Nordeste 0 -- -- 78
2019-06-09 06:00:00 11.5 5 Nordeste 9 Nordeste 0 -- -- 79
2019-06-09 05:00:00 12.2 6 Este 16 Nordeste 0 -- -- 77
2019-06-09 04:00:00 12.5 4 Este 18 Este 0 -- -- 76
2019-06-09 03:00:00 12.8 5 Este 14 Sudeste 0 -- -- 74
2019-06-09 02:00:00 13.1 6 Este 17 Este 0 -- -- 71
2019-06-09 01:00:00 13.6 7 Sudeste 14 Sudeste 0 -- -- 65
2019-06-09 00:00:00 14.8 8 Este 25 Este 0 -- -- 57
2019-06-08 23:00:00 15.5 11 Este 31 Este 0 -- -- 56
2019-06-08 22:00:00 16 11 Este 36 Este 0 -- -- 56
2019-06-08 21:00:00 17.3 20 Este 38 Este 0 -- -- 54
2019-06-08 20:00:00 18.4 21 Este 43 Este 0 -- -- 51
2019-06-08 19:00:00 19.9 23 Este 41 Este 0 -- -- 48
2019-06-08 18:00:00 22 23 Este 38 Este 0 -- -- 45
2019-06-08 17:00:00 22.6 21 Este 40 Sudeste 0 -- -- 42
2019-06-08 16:00:00 22.7 19 Sudeste 44 Este 0 -- -- 44
2019-06-08 15:00:00 23.3 21 Sudeste 39 Este 0 -- -- 42
2019-06-08 14:00:00 22.4 22 Sudeste 41 Este 0 -- -- 46
2019-06-08 13:00:00 21.4 24 Sudeste 45 Este 0 -- -- 48
2019-06-08 12:00:00 20.4 20 Sudeste 46 Este 0 -- -- 54
2019-06-08 11:00:00 18.1 25 Este 46 Este 0 -- -- 60
2019-06-08 10:00:00 17.3 26 Este 44 Este 0 -- -- 57
2019-06-08 09:00:00 15.4 22 Este 37 Este 0 -- -- 62
2019-06-08 08:00:00 13.2 8 Este 19 Este 0 -- -- 60
2019-06-08 07:00:00 12.3 7 Este 18 Este 0 -- -- 60
2019-06-08 06:00:00 12.4 10 Este 19 Nordeste 0 -- -- 57
2019-06-08 05:00:00 12.6 11 Nordeste 17 Nordeste 0 -- -- 51
2019-06-08 04:00:00 12.5 9 Nordeste 16 Nordeste 0 -- -- 48
2019-06-08 03:00:00 12.3 8 Nordeste 15 Este 0 -- -- 39
2019-06-08 02:00:00 12.1 5 Norte 11 Norte 0 -- -- 37
2019-06-08 01:00:00 12.5 6 Nordeste 11 Norte 0 -- -- 35
2019-06-08 00:00:00 11.6 5 Nordeste 9 Nordeste 0 -- -- 36
2019-06-07 23:00:00 14.1 5 Nordeste 12 Nordeste 0 -- -- 31
2019-06-07 22:00:00 16.6 4 Noroeste 14 Noroeste 0 -- -- 26
2019-06-07 21:00:00 19.5 10 Noroeste 30 Noroeste 0 -- -- 22
2019-06-07 20:00:00 21.2 10 Noroeste 24 Oeste 0 -- -- 20
2019-06-07 19:00:00 21.7 10 Oeste 25 Oeste 0 -- -- 20
2019-06-07 18:00:00 21.7 11 Oeste 32 Oeste 0 -- -- 21
2019-06-07 17:00:00 21.5 14 Oeste 32 Noroeste 0 -- -- 22
2019-06-07 16:00:00 20.6 16 Noroeste 44 Noroeste 0 -- -- 23
2019-06-07 15:00:00 20 18 Oeste 37 Oeste 0 -- -- 27
2019-06-07 14:00:00 19.1 19 Oeste 38 Noroeste 0 -- -- 34
2019-06-07 13:00:00 18.3 20 Oeste 42 Oeste 0 -- -- 42
2019-06-07 12:00:00 16.7 17 Oeste 38 Oeste 0 -- -- 51
2019-06-07 11:00:00 15.8 16 Oeste 34 Oeste 0 -- -- 60
2019-06-07 10:00:00 14.8 18 Oeste 40 Oeste 0 -- -- 65
2019-06-07 09:00:00 14.4 22 Oeste 39 Oeste 0 -- -- 67
2019-06-07 08:00:00 12.9 14 Oeste 26 Oeste 0 -- -- 63
2019-06-07 07:00:00 9.4 10 Oeste 20 Oeste 0 -- -- 67
2019-06-07 06:00:00 7 5 Sudoeste 10 Sudoeste 0 -- -- 61
2019-06-07 05:00:00 8.1 8 Sudoeste 12 Sudoeste 0 -- -- 63
2019-06-07 04:00:00 8.9 8 Sudoeste 11 Sudoeste 0 -- -- 79
2019-06-07 03:00:00 11.2 0 Calma 9 Sudeste 0 -- -- 87
2019-06-07 02:00:00 12.8 5 Sur 18 Sudeste 0 -- -- 85
2019-06-07 01:00:00 13.9 10 Sudeste 25 Sudeste 0 -- -- 80
2019-06-07 00:00:00 14.5 15 Sudeste 26 Sudeste 0 -- -- 78
2019-06-06 23:00:00 15.8 15 Sudeste 30 Sudeste 0 -- -- 71
2019-06-06 22:00:00 17.5 15 Este 28 Este 0 -- -- 66
2019-06-06 21:00:00 20.4 17 Sudeste 37 Este 0 -- -- 57
2019-06-06 20:00:00 24.4 17 Sur 32 Sur 0 -- -- 24
2019-06-06 19:00:00 25.8 16 Sur 31 Sur 0 -- -- 22
2019-06-06 18:00:00 25.6 20 Sur 37 Sudeste 0 -- -- 22
2019-06-06 17:00:00 25.6 19 Sudoeste 42 Sur 0 -- -- 22
2019-06-06 16:00:00 25.3 17 Sur 38 Sur 0 -- -- 22
2019-06-06 15:00:00 23.8 24 Sur 42 Sur 0 -- -- 24
2019-06-06 14:00:00 22.5 18 Sur 36 Sur 0 -- -- 28
2019-06-06 13:00:00 21 13 Sur 31 Sudoeste 0 -- -- 30
2019-06-06 12:00:00 19.5 8 Sudoeste 24 Sur 0 -- -- 32
2019-06-06 11:00:00 18.4 6 Sur 18 Sur 0 -- -- 32
2019-06-06 10:00:00 16.1 5 Este 9 Nordeste 0 -- -- 37
2019-06-06 09:00:00 10.9 3 Sudeste 8 Este 0 -- -- 50
2019-06-06 08:00:00 6.3 2 Nordeste 5 Nordeste 0 -- -- 62
2019-06-06 07:00:00 4.2 2 Este 6 Nordeste 0 -- -- 67
2019-06-06 06:00:00 4.8 3 Nordeste 8 Nordeste 0 -- -- 63
2019-06-06 05:00:00 5.4 3 Nordeste 4 Nordeste 0 -- -- 61
2019-06-06 04:00:00 6.1 3 Nordeste 9 Nordeste 0 -- -- 58
2019-06-06 03:00:00 6.6 5 Nordeste 8 Este 0 -- -- 55
2019-06-06 02:00:00 7.4 0 Calma 8 Nordeste 0 -- -- 56
2019-06-06 01:00:00 8 4 Nordeste 6 Nordeste 0 -- -- 52
2019-06-06 00:00:00 9.7 3 Nordeste 5 Nordeste 0 -- -- 46
2019-06-05 23:00:00 11.3 0 Calma 4 Noroeste 0 -- -- 41
2019-06-05 22:00:00 15.6 4 Noroeste 20 Noroeste 0 -- -- 31
2019-06-05 21:00:00 17.8 13 Noroeste 29 Noroeste 0 -- -- 27
2019-06-05 20:00:00 18.6 16 Oeste 35 Oeste 0 -- -- 26
2019-06-05 19:00:00 18.9 15 Oeste 38 Oeste 0 -- -- 26
2019-06-05 18:00:00 19.7 18 Oeste 37 Oeste 0 -- -- 26
2019-06-05 17:00:00 20.1 23 Noroeste 45 Noroeste 0 -- -- 25
2019-06-05 16:00:00 20.2 22 Oeste 43 Noroeste 0 -- -- 27
2019-06-05 15:00:00 19.6 23 Oeste 48 Oeste 0 -- -- 29
2019-06-05 14:00:00 18.7 27 Oeste 49 Noroeste 0 -- -- 34
2019-06-05 13:00:00 17.8 24 Oeste 46 Noroeste 0 -- -- 37
2019-06-05 12:00:00 16.3 23 Oeste 44 Oeste 0 -- -- 44
2019-06-05 11:00:00 14.8 24 Oeste 44 Oeste 0 -- -- 47
2019-06-05 10:00:00 14.2 22 Oeste 41 Oeste 0 -- -- 49
2019-06-05 09:00:00 13.7 24 Oeste 41 Oeste 0 -- -- 56
2019-06-05 08:00:00 14.4 21 Oeste 39 Oeste 0 -- -- 62
2019-06-05 07:00:00 15.1 18 Oeste 33 Oeste 0 -- -- 63
2019-06-05 06:00:00 14.8 11 Oeste 20 Oeste 0 -- -- 66
2019-06-05 05:00:00 13.5 3 Sudoeste 9 Sudoeste 0 -- -- 65
2019-06-05 04:00:00 15.5 3 Oeste 14 Oeste 0 -- -- 59
2019-06-05 03:00:00 15.9 5 Oeste 10 Oeste 0 -- -- 57
2019-06-05 02:00:00 16.9 5 Oeste 12 Noroeste 0 -- -- 51
2019-06-05 01:00:00 17.1 5 Oeste 13 Oeste 0 -- -- 46
2019-06-05 00:00:00 18.6 9 Oeste 16 Oeste 0 -- -- 42
2019-06-04 23:00:00 19.2 5 Sudoeste 20 Sudoeste 0 -- -- 36
2019-06-04 22:00:00 20.2 9 Sudoeste 16 Sudoeste 0 -- -- 33
2019-06-04 21:00:00 25 14 Sudoeste 29 Oeste 0 -- -- 23
2019-06-04 20:00:00 27.4 18 Sudoeste 34 Sudoeste 0 -- -- 21
2019-06-04 19:00:00 29.2 18 Sudoeste 37 Sudoeste 0 -- -- 19
2019-06-04 18:00:00 30.4 23 Sur 36 Sudoeste 0 -- -- 19
2019-06-04 17:00:00 30.9 22 Sudoeste 33 Sudoeste 0 -- -- 20
2019-06-04 16:00:00 30.8 23 Sudoeste 41 Sudoeste 0 -- -- 19
2019-06-04 15:00:00 30.4 20 Sudoeste 37 Sudoeste 0 -- -- 18
2019-06-04 14:00:00 29.6 18 Sudoeste 32 Sudoeste 0 -- -- 23
2019-06-04 13:00:00 28.4 19 Sudoeste 31 Sudoeste 0 -- -- 27
2019-06-04 12:00:00 26.8 8 Sudoeste 24 Sudoeste 0 -- -- 28
2019-06-04 11:00:00 24.3 5 Sur 13 Sur 0 -- -- 34
2019-06-04 10:00:00 21.7 8 Oeste 16 Oeste 0 -- -- 36
2019-06-04 09:00:00 16 2 Este 6 Nordeste 0 -- -- 56
2019-06-04 08:00:00 12.2 4 Nordeste 8 Nordeste 0 -- -- 66
2019-06-04 07:00:00 10.7 4 Este 8 Norte 0 -- -- 69
2019-06-04 06:00:00 11.6 4 Nordeste 6 Norte 0 -- -- 65
2019-06-04 05:00:00 12.8 3 Nordeste 10 Nordeste 0 -- -- 62
2019-06-04 04:00:00 15.2 3 Nordeste 10 Nordeste 0 -- -- 54
2019-06-04 03:00:00 16 4 Nordeste 8 Nordeste 0 -- -- 51
2019-06-04 02:00:00 17.5 4 Este 17 Este 0 -- -- 48
2019-06-04 01:00:00 17.8 6 Este 14 Nordeste 0 -- -- 49
2019-06-04 00:00:00 19.6 7 Este 17 Sudeste 0 -- -- 49
2019-06-03 23:00:00 21.9 10 Este 26 Este 0 -- -- 47
2019-06-03 22:00:00 23.8 11 Sudeste 21 Sur 0 -- -- 36
2019-06-03 21:00:00 27.1 16 Sur 26 Sur 0 -- -- 28
2019-06-03 20:00:00 30.6 11 Oeste 31 Noroeste 0 -- -- 18
2019-06-03 19:00:00 31.8 9 Oeste 28 Oeste 0 -- -- 17
2019-06-03 18:00:00 32.2 11 Oeste 30 Oeste 0 -- -- 18
2019-06-03 17:00:00 32.8 12 Oeste 28 Sudoeste 0 -- -- 17
2019-06-03 16:00:00 32.5 13 Oeste 33 Oeste 0 -- -- 18
2019-06-03 15:00:00 31.8 14 Oeste 25 Oeste 0 -- -- 21
2019-06-03 14:00:00 30.4 9 Noroeste 21 Oeste 0 -- -- 23
2019-06-03 13:00:00 28.8 8 Sur 17 Sur 0 -- -- 25
2019-06-03 12:00:00 26.2 6 Sudoeste 15 Noroeste 0 -- -- 29
2019-06-03 11:00:00 24.3 6 Sudoeste 13 Sudoeste 0 -- -- 30
2019-06-03 10:00:00 22.5 4 Sur 9 Sudoeste 0 -- -- 32
2019-06-03 09:00:00 17.4 3 Nordeste 8 Nordeste 0 -- -- 43
2019-06-03 08:00:00 13.3 2 Nordeste 8 Norte 0 -- -- 53
2019-06-03 07:00:00 13.2 4 Nordeste 10 Nordeste 0 -- -- 50
2019-06-03 06:00:00 14.2 5 Nordeste 13 Nordeste 0 -- -- 44
2019-06-03 05:00:00 15.1 6 Nordeste 17 Nordeste 0 -- -- 43
2019-06-03 04:00:00 15.5 12 Nordeste 19 Este 0 -- -- 43
2019-06-03 03:00:00 16.2 10 Nordeste 15 Nordeste 0 -- -- 42
2019-06-03 02:00:00 16.7 7 Nordeste 12 Este 0 -- -- 42
2019-06-03 01:00:00 16.8 6 Este 17 Este 0 -- -- 46
2019-06-03 00:00:00 18 5 Este 19 Este 0 -- -- 44
2019-06-02 23:00:00 19.7 8 Este 28 Este 0 -- -- 41
2019-06-02 22:00:00 21.9 18 Sudeste 34 Este 0 -- -- 37
2019-06-02 21:00:00 25.6 18 Este 30 Este 0 -- -- 32
2019-06-02 20:00:00 28.4 16 Sur 28 Sudeste 0 -- -- 24
2019-06-02 19:00:00 30.3 17 Sur 26 Sur 0 -- -- 23
2019-06-02 18:00:00 31.3 11 Sur 28 Sur 0 -- -- 21
2019-06-02 17:00:00 30.9 6 Sur 21 Sudoeste 0 -- -- 21
2019-06-02 16:00:00 30.1 8 Sudeste 19 Noroeste 0 -- -- 23
2019-06-02 15:00:00 29.3 9 Sur 21 Sudeste 0 -- -- 24
2019-06-02 14:00:00 27.8 6 Sudeste 18 Sur 0 -- -- 27
2019-06-02 13:00:00 26.9 9 Sudeste 19 Sur 0 -- -- 27
2019-06-02 12:00:00 24.7 6 Sur 18 Sudeste 0 -- -- 29
2019-06-02 11:00:00 22.4 5 Sur 12 Sudeste 0 -- -- 32
2019-06-02 10:00:00 20.3 3 Sudeste 9 Nordeste 0 -- -- 34
2019-06-02 09:00:00 15.8 4 Nordeste 9 Nordeste 0 -- -- 44
2019-06-02 08:00:00 11.7 4 Nordeste 10 Nordeste 0 -- -- 55
2019-06-02 07:00:00 10.9 5 Nordeste 10 Nordeste 0 -- -- 55
2019-06-02 06:00:00 11.3 5 Nordeste 11 Nordeste 0 -- -- 52
2019-06-02 05:00:00 12.5 4 Nordeste 8 Norte 0 -- -- 48
2019-06-02 04:00:00 13 4 Nordeste 8 Nordeste 0 -- -- 47
2019-06-02 03:00:00 14.4 4 Nordeste 13 Nordeste 0 -- -- 44
2019-06-02 02:00:00 14.3 6 Este 12 Nordeste 0 -- -- 44
2019-06-02 01:00:00 15.7 6 Este 25 Sudeste 0 -- -- 42
2019-06-02 00:00:00 17.1 15 Este 27 Este 0 -- -- 39
2019-06-01 23:00:00 18.6 16 Este 29 Este 0 -- -- 39
2019-06-01 22:00:00 20.7 13 Sudeste 29 Este 0 -- -- 37
2019-06-01 21:00:00 24.3 18 Sudeste 27 Este 0 -- -- 32
2019-06-01 20:00:00 26.7 16 Sudeste 26 Sur 0 -- -- 24
2019-06-01 19:00:00 28.2 14 Sudeste 28 Sudeste 0 -- -- 24
2019-06-01 18:00:00 28.9 10 Sur 30 Sudeste 0 -- -- 24
2019-06-01 17:00:00 29.3 15 Sudeste 28 Sudeste 0 -- -- 22
2019-06-01 16:00:00 29 12 Sudeste 25 Sudeste 0 -- -- 22
2019-06-01 15:00:00 28.7 12 Sudeste 29 Sudeste 0 -- -- 23
2019-06-01 14:00:00 27.6 11 Sur 22 Sudeste 0 -- -- 23
2019-06-01 13:00:00 26.7 8 Sudeste 25 Este 0 -- -- 28
2019-06-01 12:00:00 25.2 12 Sudeste 22 Este 0 -- -- 33
2019-06-01 11:00:00 23.2 7 Sudeste 17 Este 0 -- -- 36
2019-06-01 10:00:00 20.9 7 Este 15 Este 0 -- -- 42
2019-06-01 09:00:00 15.5 6 Este 13 Nordeste 0 -- -- 58
2019-06-01 08:00:00 11.9 5 Nordeste 11 Nordeste 0 -- -- 66
2019-06-01 07:00:00 10.9 6 Nordeste 10 Nordeste 0 -- -- 67
2019-06-01 06:00:00 11.4 4 Nordeste 12 Nordeste 0 -- -- 65
2019-06-01 05:00:00 12.6 8 Nordeste 14 Nordeste 0 -- -- 61
2019-06-01 04:00:00 13.2 7 Nordeste 11 Nordeste 0 -- -- 59
2019-06-01 03:00:00 13.3 5 Nordeste 14 Sudeste 0 -- -- 58
2019-06-01 02:00:00 13.5 6 Este 17 Este 0 -- -- 57
2019-06-01 01:00:00 14.7 7 Este 24 Sudeste 0 -- -- 53
2019-06-01 00:00:00 16 15 Este 33 Este 0 -- -- 49
2019-05-31 23:00:00 17.3 19 Este 36 Este 0 -- -- 49
2019-05-31 22:00:00 19.1 20 Sudeste 33 Sudeste 0 -- -- 48
2019-05-31 21:00:00 23 20 Sudeste 33 Sudeste 0 -- -- 42
2019-05-31 20:00:00 26.1 8 Sur 29 Sur 0 -- -- 26
2019-05-31 19:00:00 27.1 13 Sur 24 Sudeste 0 -- -- 25
2019-05-31 18:00:00 27.4 10 Sur 27 Sur 0 -- -- 24
2019-05-31 17:00:00 27.5 9 Sudeste 28 Sudeste 0 -- -- 26
2019-05-31 16:00:00 27.1 9 Sudeste 31 Sudoeste 0 -- -- 25
2019-05-31 15:00:00 26.4 11 Sur 24 Sudeste 0 -- -- 27
2019-05-31 14:00:00 25.6 11 Sudeste 19 Sur 0 -- -- 32
2019-05-31 13:00:00 24.2 7 Sur 22 Sudeste 0 -- -- 34
2019-05-31 12:00:00 22.9 8 Sudeste 19 Sur 0 -- -- 36
2019-05-31 11:00:00 21.7 10 Sur 17 Sur 0 -- -- 44
2019-05-31 10:00:00 20 8 Sudeste 14 Sudeste 0 -- -- 45
2019-05-31 09:00:00 14.6 3 Norte 9 Nordeste 0 -- -- 62
2019-05-31 08:00:00 10.9 6 Nordeste 9 Nordeste 0 -- -- 70
2019-05-31 07:00:00 8.1 4 Nordeste 9 Nordeste 0 -- -- 77
2019-05-31 06:00:00 8.8 3 Nordeste 9 Norte 0 -- -- 72
2019-05-31 05:00:00 9.8 6 Nordeste 9 Norte 0 -- -- 70
2019-05-31 04:00:00 10.9 5 Nordeste 8 Norte 0 -- -- 66
2019-05-31 03:00:00 12 3 Nordeste 10 Nordeste 0 -- -- 63
2019-05-31 02:00:00 14.5 4 Nordeste 11 Este 0 -- -- 55
2019-05-31 01:00:00 14.4 5 Este 15 Este 0 -- -- 55
2019-05-31 00:00:00 16.1 8 Este 25 Este 0 -- -- 50
2019-05-30 23:00:00 17.6 15 Este 27 Este 0 -- -- 45
2019-05-30 22:00:00 20.2 10 Sudeste 29 Sudeste 0 -- -- 40
2019-05-30 21:00:00 22.7 8 Sudeste 16 Sudeste 0 -- -- 31
2019-05-30 20:00:00 24.9 10 Sudeste 18 Sur 0 -- -- 27
2019-05-30 19:00:00 26 10 Sur 22 Sur 0 -- -- 27
2019-05-30 18:00:00 26 7 Sur 21 Sur 0 -- -- 26
2019-05-30 17:00:00 26.2 9 Sur 24 Sudeste 0 -- -- 26
2019-05-30 16:00:00 25.2 6 Este 21 Sudeste 0 -- -- 30
2019-05-30 15:00:00 24 8 Sur 22 Sur 0 -- -- 30
2019-05-30 14:00:00 23.1 10 Sur 20 Sudeste 0 -- -- 34
2019-05-30 13:00:00 21.9 9 Sur 23 Nordeste 0 -- -- 35
2019-05-30 12:00:00 20.3 6 Sur 18 Sur 0 -- -- 37
2019-05-30 11:00:00 19.1 8 Sudeste 18 Sudeste 0 -- -- 44
2019-05-30 10:00:00 17.6 7 Sudeste 18 Este 0 -- -- 45
2019-05-30 09:00:00 13.7 6 Este 15 Este 0 -- -- 61
2019-05-30 08:00:00 10.7 6 Nordeste 14 Nordeste 0 -- -- 67
2019-05-30 07:00:00 9.2 8 Nordeste 16 Nordeste 0 -- -- 70
2019-05-30 06:00:00 9.4 4 Nordeste 13 Este 0 -- -- 69
2019-05-30 05:00:00 10.1 4 Este 16 Nordeste 0 -- -- 66
2019-05-30 04:00:00 10.2 3 Nordeste 13 Nordeste 0 -- -- 64
2019-05-30 03:00:00 10.1 4 Nordeste 10 Nordeste 0 -- -- 62
2019-05-30 02:00:00 10.5 3 Este 11 Nordeste 0 -- -- 61
2019-05-30 01:00:00 12.1 0 Calma 9 Nordeste 0 -- -- 56
2019-05-30 00:00:00 13.7 0 Calma 8 Sudeste 0 -- -- 52
2019-05-29 23:00:00 15.9 0 Calma 15 Nordeste 0 -- -- 46
2019-05-29 22:00:00 19 11 Este 21 Este 0 -- -- 37
2019-05-29 21:00:00 21.7 7 Este 21 Este 0 -- -- 32
2019-05-29 20:00:00 24 9 Este 19 Sudeste 0 -- -- 28
2019-05-29 19:00:00 24.6 8 Este 16 Sudeste 0 -- -- 26
2019-05-29 18:00:00 24.2 5 Sudeste 16 Sur 0 -- -- 25
2019-05-29 17:00:00 23.8 5 Noroeste 23 Sur 0 -- -- 26
2019-05-29 16:00:00 23.7 8 Sudeste 22 Sudeste 0 -- -- 27
2019-05-29 15:00:00 22.3 8 Sudeste 20 Este 0 -- -- 31
2019-05-29 14:00:00 20.6 11 Nordeste 23 Nordeste 0 -- -- 34
2019-05-29 13:00:00 19.9 11 Este 29 Nordeste 0 -- -- 30
2019-05-29 12:00:00 18.1 6 Este 22 Este 0 -- -- 34
2019-05-29 11:00:00 16.4 10 Nordeste 28 Nordeste 0 -- -- 35
2019-05-29 10:00:00 14.6 14 Nordeste 30 Norte 0 -- -- 37
2019-05-29 09:00:00 11.6 14 Nordeste 24 Nordeste 0 -- -- 47
2019-05-29 08:00:00 8.1 5 Noroeste 9 Noroeste 0 -- -- 66
2019-05-29 07:00:00 6.3 4 Norte 9 Nordeste 0 -- -- 73
2019-05-29 06:00:00 8.3 3 Norte 14 Nordeste 0 -- -- 65
2019-05-29 05:00:00 7.4 0 Calma 9 Nordeste 0 -- -- 69
2019-05-29 04:00:00 9.9 5 Norte 12 Norte 0 -- -- 62
2019-05-29 03:00:00 10.7 3 Norte 6 Nordeste 0 -- -- 61
2019-05-29 02:00:00 11.3 2 Sur 13 Norte 0 -- -- 60
2019-05-29 01:00:00 11.1 2 Nordeste 7 Norte 0 -- -- 61
2019-05-29 00:00:00 13.8 3 Este 14 Este 0 -- -- 53
2019-05-28 23:00:00 16.2 8 Este 15 Nordeste 0 -- -- 45
2019-05-28 22:00:00 18.9 6 Este 17 Noroeste 0 -- -- 34
2019-05-28 21:00:00 21.5 12 Noroeste 34 Noroeste 0 -- -- 27
2019-05-28 20:00:00 23.1 20 Noroeste 40 Noroeste 0 -- -- 24
2019-05-28 19:00:00 24.6 15 Noroeste 37 Noroeste 0 -- -- 18
2019-05-28 18:00:00 25.1 19 Norte 36 Norte 0 -- -- 18
2019-05-28 17:00:00 25.8 16 Noroeste 32 Noroeste 0 -- -- 18
2019-05-28 16:00:00 25.2 17 Noroeste 42 Norte 0 -- -- 18
2019-05-28 15:00:00 25.1 12 Noroeste 34 Norte 0 -- -- 20
2019-05-28 14:00:00 24.5 15 Noroeste 33 Noroeste 0 -- -- 23
2019-05-28 13:00:00 23.7 15 Noroeste 28 Noroeste 0 -- -- 26
2019-05-28 12:00:00 22.5 11 Noroeste 24 Oeste 0 -- -- 33
2019-05-28 11:00:00 21.2 8 Noroeste 17 Oeste 0 -- -- 46
2019-05-28 10:00:00 19 4 Norte 10 Norte 0 -- -- 52
2019-05-28 09:00:00 15.5 6 Nordeste 15 Nordeste 0 -- -- 65
2019-05-28 08:00:00 12.5 6 Nordeste 15 Nordeste 0 -- -- 74
2019-05-28 07:00:00 11.8 6 Nordeste 12 Norte 0 -- -- 75
2019-05-28 06:00:00 12.4 6 Nordeste 15 Nordeste 0 -- -- 73
2019-05-28 05:00:00 12.7 6 Nordeste 12 Norte 0 -- -- 71
2019-05-28 04:00:00 13.6 6 Nordeste 17 Nordeste 0 -- -- 67
2019-05-28 03:00:00 14.3 9 Nordeste 19 Este 0 -- -- 64
2019-05-28 02:00:00 15.1 10 Nordeste 17 Este 0 -- -- 62
2019-05-28 01:00:00 15.6 8 Este 15 Este 0 -- -- 61
2019-05-28 00:00:00 17.3 8 Este 19 Nordeste 0 -- -- 58
2019-05-27 23:00:00 18.7 6 Este 17 Este 0 -- -- 56
2019-05-27 22:00:00 21.4 4 Nordeste 8 Noroeste 0 -- -- 38
2019-05-27 21:00:00 24.2 5 Noroeste 24 Noroeste 0 -- -- 31
2019-05-27 20:00:00 25.5 11 Noroeste 32 Noroeste 0 -- -- 27
2019-05-27 19:00:00 25.9 18 Noroeste 35 Noroeste 0 -- -- 26
2019-05-27 18:00:00 26.3 16 Noroeste 38 Oeste 0 -- -- 27
2019-05-27 17:00:00 27.8 17 Oeste 33 Oeste 0 -- -- 21
2019-05-27 16:00:00 27.5 15 Oeste 36 Oeste 0 -- -- 24
2019-05-27 15:00:00 25.9 14 Norte 29 Noroeste 0 -- -- 24
2019-05-27 14:00:00 25.6 12 Noroeste 31 Oeste 0 -- -- 27
2019-05-27 13:00:00 24.1 14 Noroeste 29 Noroeste 0 -- -- 34
2019-05-27 12:00:00 21.9 10 Oeste 21 Oeste 0 -- -- 41
2019-05-27 11:00:00 18.7 8 Noroeste 18 Noroeste 0 -- -- 50
2019-05-27 10:00:00 16 4 Oeste 9 Oeste 0 -- -- 56
2019-05-27 09:00:00 12.7 0 Calma 8 Nordeste 0 -- -- 67
2019-05-27 08:00:00 9.3 5 Norte 8 Norte 0 -- -- 74
2019-05-27 07:00:00 7.7 4 Norte 8 Norte 0 -- -- 82
2019-05-27 06:00:00 8.8 4 Nordeste 10 Norte 0 -- -- 74
2019-05-27 05:00:00 8.5 4 Nordeste 8 Norte 0 -- -- 77
2019-05-27 04:00:00 9.4 5 Nordeste 9 Nordeste 0 -- -- 74
2019-05-27 03:00:00 9.6 4 Nordeste 8 Norte 0 -- -- 70
2019-05-27 02:00:00 10.8 2 Nordeste 7 Norte 0 -- -- 66
2019-05-27 01:00:00 12.7 2 Este 9 Este 0 -- -- 65
2019-05-27 00:00:00 14.3 0 Calma 13 Nordeste 0 -- -- 55
2019-05-26 23:00:00 16.8 8 Nordeste 13 Nordeste 0 -- -- 44
2019-05-26 22:00:00 18 5 Nordeste 12 Nordeste 0 -- -- 40
2019-05-26 21:00:00 20.5 9 Este 21 Este 0 -- -- 37
2019-05-26 20:00:00 22.5 9 Este 21 Este 0 -- -- 36
2019-05-26 19:00:00 22.8 6 Este 21 Nordeste 0 -- -- 37
2019-05-26 18:00:00 23.9 11 Nordeste 22 Nordeste 0 -- -- 32
2019-05-26 17:00:00 24.5 8 Oeste 20 Sudoeste 0 -- -- 30
2019-05-26 16:00:00 23.3 6 Noroeste 20 Oeste 0 -- -- 31
2019-05-26 15:00:00 22 7 Oeste 22 Oeste 0 -- -- 34
2019-05-26 14:00:00 21.6 10 Oeste 22 Oeste 0 -- -- 38
2019-05-26 13:00:00 20.3 8 Noroeste 23 Sudoeste 0 -- -- 40
2019-05-26 12:00:00 19.1 14 Oeste 24 Oeste 0 -- -- 41
2019-05-26 11:00:00 17 8 Oeste 17 Oeste 0 -- -- 50
2019-05-26 10:00:00 14.9 2 Oeste 16 Nordeste 0 -- -- 58
2019-05-26 09:00:00 11.8 10 Nordeste 24 Nordeste 0 -- -- 65
2019-05-26 08:00:00 9.7 9 Nordeste 18 Nordeste 0 -- -- 76
2019-05-26 07:00:00 9 6 Nordeste 15 Nordeste 0 -- -- 79
2019-05-26 06:00:00 9.1 7 Norte 14 Norte 0 -- -- 78
2019-05-26 05:00:00 9.9 6 Norte 13 Nordeste 0 -- -- 76
2019-05-26 04:00:00 9.9 7 Nordeste 13 Nordeste 0 -- -- 76
2019-05-26 03:00:00 9.4 0 Calma 9 Norte 0 -- -- 74
2019-05-26 02:00:00 12 5 Nordeste 10 Nordeste 0 -- -- 68
2019-05-26 01:00:00 13.5 6 Nordeste 12 Nordeste 0 -- -- 61
2019-05-26 00:00:00 13.8 6 Este 17 Nordeste 0 -- -- 61
2019-05-25 23:00:00 15.5 2 Este 8 Este 0 -- -- 59
2019-05-25 22:00:00 17 5 Nordeste 13 Este 0 -- -- 50
2019-05-25 21:00:00 18.3 5 Este 12 Nordeste 0 -- -- 48
2019-05-25 20:00:00 19.5 4 Este 23 Nordeste 0 -- -- 45
2019-05-25 19:00:00 20.2 8 Este 21 Este 0 -- -- 40
2019-05-25 18:00:00 20.6 10 Nordeste 31 Nordeste 0 -- -- 40
2019-05-25 17:00:00 20 13 Noroeste 27 Noroeste 0 -- -- 46
2019-05-25 16:00:00 22.2 12 Este 26 Este 0 -- -- 37
2019-05-25 15:00:00 20.6 12 Nordeste 28 Nordeste 0 -- -- 40
2019-05-25 14:00:00 20.1 11 Este 30 Nordeste 0 -- -- 43
2019-05-25 13:00:00 17.9 13 Nordeste 34 Nordeste 0 -- -- 48
2019-05-25 12:00:00 16.7 15 Norte 30 Norte 0 -- -- 51
2019-05-25 11:00:00 14.8 15 Norte 34 Nordeste 0 -- -- 56
2019-05-25 10:00:00 13.9 16 Norte 33 Norte 0 -- -- 59
2019-05-25 09:00:00 12.2 12 Norte 25 Norte 0 -- -- 64
2019-05-25 08:00:00 11.5 9 Nordeste 20 Nordeste 0 -- -- 67
2019-05-25 07:00:00 10.3 4 Norte 9 Norte 0 -- -- 77
2019-05-25 06:00:00 8.5 3 Noroeste 11 Oeste 0 -- -- 88
2019-05-25 05:00:00 7.4 5 Noroeste 9 Noroeste 0 -- -- 93
2019-05-25 04:00:00 6.7 3 Noroeste 12 Norte 0 -- -- 89
2019-05-25 03:00:00 6.3 3 Norte 10 Norte 0 -- -- 91
2019-05-25 02:00:00 6.6 0 Calma 4 Sudeste 0 -- -- 87
2019-05-25 01:00:00 8.2 3 Este 9 Nordeste 0 -- -- 82
2019-05-25 00:00:00 10.5 0 Calma 9 Norte 0 -- -- 75
2019-05-24 23:00:00 12 4 Nordeste 10 Este 0 -- -- 78
2019-05-24 22:00:00 12.7 6 Este 21 Este 0 -- -- 69
2019-05-24 21:00:00 15 8 Este 28 Nordeste 0.2 -- -- 62
2019-05-24 20:00:00 16.9 13 Este 31 Nordeste 0 -- -- 55
2019-05-24 19:00:00 18.1 13 Nordeste 31 Nordeste 0 -- -- 54
2019-05-24 18:00:00 19 14 Este 33 Este 0 -- -- 54
2019-05-24 17:00:00 17.8 18 Este 36 Este 0 -- -- 62
2019-05-24 16:00:00 15.1 17 Nordeste 36 Nordeste 0 -- -- 70
2019-05-24 15:00:00 14.4 13 Este 33 Nordeste 0 -- -- 79
2019-05-24 14:00:00 16.3 14 Este 34 Nordeste 0 -- -- 66
2019-05-24 13:00:00 19.6 18 Sudeste 30 Sudeste 0 -- -- 63
2019-05-24 12:00:00 18.4 18 Sudeste 32 Este 0 -- -- 66
2019-05-24 11:00:00 16.3 18 Sudeste 33 Este 0 -- -- 73
2019-05-24 10:00:00 15.8 9 Este 20 Sudeste 0 -- -- 73
2019-05-24 09:00:00 14.6 6 Este 17 Este 0 -- -- 73
2019-05-24 08:00:00 14.1 2 Este 8 Norte 0 -- -- 71
2019-05-24 07:00:00 12.1 0 Calma 4 Nordeste 0 -- -- 78
2019-05-24 06:00:00 12.5 0 Calma 5 Nordeste 0 -- -- 71
2019-05-24 05:00:00 13.2 0 Calma 6 Nordeste 0 -- -- 68
2019-05-24 04:00:00 14.9 5 Nordeste 8 Nordeste 0 -- -- 58
2019-05-24 03:00:00 15.5 2 Nordeste 6 Nordeste 0 -- -- 56
2019-05-24 02:00:00 15.7 3 Este 5 Nordeste 0 -- -- 54
2019-05-24 01:00:00 16.3 3 Este 7 Este 0 -- -- 54
2019-05-24 00:00:00 16.9 2 Sur 9 Este 0 -- -- 54
2019-05-23 23:00:00 17.6 4 Este 9 Sudeste 0 -- -- 52
2019-05-23 22:00:00 19.7 0 Calma 4 Sur 0 -- -- 48
2019-05-23 21:00:00 22.5 2 Sudoeste 18 Oeste 0 -- -- 42
2019-05-23 20:00:00 24.7 10 Oeste 23 Oeste 0 -- -- 30
2019-05-23 19:00:00 26.1 13 Sudoeste 30 Oeste 0 -- -- 27
2019-05-23 18:00:00 26.4 15 Sudoeste 25 Sudoeste 0 -- -- 28
2019-05-23 17:00:00 25.9 13 Oeste 26 Oeste 0 -- -- 29
2019-05-23 16:00:00 25.6 10 Oeste 27 Oeste 0 -- -- 30
2019-05-23 15:00:00 25.8 11 Oeste 27 Sudoeste 0 -- -- 31
2019-05-23 14:00:00 24.4 11 Oeste 27 Oeste 0 -- -- 33
2019-05-23 13:00:00 24.2 8 Noroeste 19 Oeste 0 -- -- 35
2019-05-23 12:00:00 21.8 7 Sudoeste 14 Sudoeste 0 -- -- 46
2019-05-23 11:00:00 18.2 4 Sudoeste 9 Sur 0 -- -- 57
2019-05-23 10:00:00 15.9 5 Sudoeste 8 Sudoeste 0 -- -- 69
2019-05-23 09:00:00 13.6 0 Calma 9 Norte 0 -- -- 83
2019-05-23 08:00:00 11.9 3 Norte 9 Nordeste 0 -- -- 82
2019-05-23 07:00:00 11 5 Nordeste 10 Norte 0 -- -- 83
2019-05-23 06:00:00 11.3 4 Nordeste 11 Nordeste 0 -- -- 84
2019-05-23 05:00:00 12.4 5 Nordeste 12 Nordeste 0 -- -- 80
2019-05-23 04:00:00 12.6 5 Nordeste 12 Nordeste 0 -- -- 81
2019-05-23 03:00:00 12.7 4 Nordeste 10 Nordeste 0 -- -- 81
2019-05-23 02:00:00 13 5 Nordeste 9 Nordeste 0 -- -- 79
2019-05-23 01:00:00 13.9 3 Este 8 Este 0 -- -- 76
2019-05-23 00:00:00 15.2 3 Este 17 Este 0 -- -- 70
2019-05-22 23:00:00 16.7 10 Este 27 Sudeste 0 -- -- 69
2019-05-22 22:00:00 16.9 8 Este 16 Este 0 -- -- 62
2019-05-22 21:00:00 20.5 0 Calma 6 Oeste 0 -- -- 46
2019-05-22 20:00:00 23.8 5 Noroeste 14 Noroeste 0 -- -- 31
2019-05-22 19:00:00 24.6 4 Oeste 23 Oeste 0 -- -- 29
2019-05-22 18:00:00 24 9 Sudoeste 21 Oeste 0 -- -- 32
2019-05-22 17:00:00 23.5 6 Sudoeste 13 Sudoeste 0 -- -- 35
2019-05-22 16:00:00 23.1 9 Sudoeste 23 Sur 0 -- -- 35
2019-05-22 15:00:00 24.1 7 Sudeste 18 Sur 0 -- -- 34
2019-05-22 14:00:00 23 8 Sudoeste 21 Sur 0 -- -- 37
2019-05-22 13:00:00 21.8 8 Sur 22 Sudeste 0 -- -- 44
2019-05-22 12:00:00 20.4 7 Sudeste 21 Sur 0 -- -- 48
2019-05-22 11:00:00 18.5 11 Sudeste 20 Sur 0 -- -- 56
2019-05-22 10:00:00 16.7 8 Sudeste 17 Este 0.2 -- -- 65
2019-05-22 09:00:00 12.6 3 Nordeste 10 Nordeste 0 -- -- 82
2019-05-22 08:00:00 10.1 4 Nordeste 10 Nordeste 0 -- -- 85
2019-05-22 07:00:00 8.9 6 Nordeste 11 Nordeste 0 -- -- 87
2019-05-22 06:00:00 8.6 5 Nordeste 10 Norte 0 -- -- 87
2019-05-22 05:00:00 9.1 4 Nordeste 9 Norte 0 -- -- 86
2019-05-22 04:00:00 9.5 4 Nordeste 12 Nordeste 0 -- -- 85
2019-05-22 03:00:00 10 5 Nordeste 11 Nordeste 0 -- -- 86
2019-05-22 02:00:00 10.4 5 Nordeste 16 Nordeste 0 -- -- 86
2019-05-22 01:00:00 11.3 8 Nordeste 15 Este 0.2 -- -- 85
2019-05-22 00:00:00 11.2 3 Este 17 Este 0.2 -- -- 87
2019-05-21 23:00:00 12.3 9 Este 26 Sudeste 0 -- -- 87
2019-05-21 22:00:00 13.9 13 Sudeste 40 Sudeste 0 -- -- 73
2019-05-21 21:00:00 15.7 22 Sudeste 38 Sudeste 0 -- -- 66
2019-05-21 20:00:00 18.8 12 Este 29 Este 0 -- -- 46
2019-05-21 19:00:00 20.8 8 Sur 14 Sur 0 -- -- 36
2019-05-21 18:00:00 22.7 9 Oeste 18 Sudoeste 0 -- -- 33
2019-05-21 17:00:00 21.6 8 Sur 17 Sur 0 -- -- 36
2019-05-21 16:00:00 19.9 8 Nordeste 26 Nordeste 0 -- -- 39
2019-05-21 15:00:00 21.7 10 Sudeste 25 Sudeste 0 -- -- 35
2019-05-21 14:00:00 21 12 Sur 25 Sur 0 -- -- 39
2019-05-21 13:00:00 20.4 7 Sur 18 Sur 0 -- -- 38
2019-05-21 12:00:00 19.4 9 Sudeste 19 Sudeste 0 -- -- 45
2019-05-21 11:00:00 18.4 8 Sudeste 19 Sudeste 0 -- -- 47
2019-05-21 10:00:00 15.5 10 Sudeste 18 Sudeste 0 -- -- 55
2019-05-21 09:00:00 12.9 3 Nordeste 8 Nordeste 0 -- -- 62
2019-05-21 08:00:00 11.9 4 Nordeste 9 Este 0 -- -- 63
2019-05-21 07:00:00 11.5 2 Este 9 Este 0 -- -- 66
2019-05-21 06:00:00 11.9 3 Este 14 Nordeste 0 -- -- 68
2019-05-21 05:00:00 12.1 4 Este 19 Nordeste 0 -- -- 69
2019-05-21 04:00:00 12.3 4 Nordeste 12 Este 0 -- -- 70
2019-05-21 03:00:00 12.5 9 Nordeste 14 Este 0 -- -- 69
2019-05-21 02:00:00 12.6 3 Nordeste 14 Este 0 -- -- 69
2019-05-21 01:00:00 13.1 6 Este 14 Nordeste 0 -- -- 64
2019-05-21 00:00:00 12.4 7 Este 21 Sudeste 0 -- -- 57
2019-05-20 23:00:00 13.2 2 Este 5 Nordeste 0 -- -- 56
2019-05-20 22:00:00 15.6 0 Calma 5 Noroeste 0 -- -- 46
2019-05-20 21:00:00 18.3 5 Noroeste 14 Noroeste 0 -- -- 31
2019-05-20 20:00:00 19.1 9 Oeste 21 Noroeste 0 -- -- 29
2019-05-20 19:00:00 20.2 12 Oeste 22 Oeste 0 -- -- 29
2019-05-20 18:00:00 20.5 14 Oeste 27 Oeste 0 -- -- 26
2019-05-20 17:00:00 20.9 15 Oeste 24 Oeste 0 -- -- 26
2019-05-20 16:00:00 20.3 8 Oeste 26 Sudoeste 0 -- -- 29
2019-05-20 15:00:00 20.5 13 Oeste 25 Sudoeste 0 -- -- 29
2019-05-20 14:00:00 19.1 8 Sur 20 Sudoeste 0 -- -- 34
2019-05-20 13:00:00 19.6 9 Sudoeste 22 Oeste 0 -- -- 33
2019-05-20 12:00:00 17.9 7 Sur 14 Sur 0 -- -- 35
2019-05-20 11:00:00 16 5 Este 12 Sur 0 -- -- 43
2019-05-20 10:00:00 14 4 Este 10 Nordeste 0 -- -- 52
2019-05-20 09:00:00 9.9 6 Nordeste 13 Nordeste 0 -- -- 66
2019-05-20 08:00:00 7.3 6 Nordeste 13 Nordeste 0 -- -- 75
2019-05-20 07:00:00 7 7 Nordeste 12 Norte 0 -- -- 75
2019-05-20 06:00:00 7.1 7 Nordeste 13 Nordeste 0 -- -- 76
2019-05-20 05:00:00 7.1 4 Nordeste 8 Nordeste 0 -- -- 74
2019-05-20 04:00:00 6.6 3 Nordeste 9 Nordeste 0 -- -- 77
2019-05-20 03:00:00 6.3 4 Nordeste 10 Nordeste 0 -- -- 79
2019-05-20 02:00:00 6.6 5 Nordeste 10 Nordeste 0 -- -- 77
2019-05-20 01:00:00 8.3 4 Nordeste 12 Nordeste 0 -- -- 69
2019-05-20 00:00:00 9.2 5 Nordeste 16 Nordeste 0 -- -- 65
2019-05-19 23:00:00 9.2 5 Nordeste 9 Norte 0 -- -- 54
2019-05-19 22:00:00 10.9 0 Calma 5 Noroeste 0 -- -- 51
2019-05-19 21:00:00 15.2 4 Noroeste 22 Norte 0 -- -- 36
2019-05-19 20:00:00 16.6 12 Noroeste 28 Oeste 0 -- -- 32
2019-05-19 19:00:00 18.1 14 Noroeste 30 Oeste 0 -- -- 33
2019-05-19 18:00:00 17 15 Oeste 30 Oeste 0 -- -- 33
2019-05-19 17:00:00 17.2 13 Noroeste 34 Noroeste 0 -- -- 33
2019-05-19 16:00:00 16.6 15 Noroeste 33 Noroeste 0 -- -- 35
2019-05-19 15:00:00 16.2 18 Noroeste 35 Oeste 0 -- -- 32
2019-05-19 14:00:00 16.3 18 Oeste 42 Oeste 0 -- -- 36
2019-05-19 13:00:00 15.2 15 Noroeste 27 Noroeste 0 -- -- 36
2019-05-19 12:00:00 15 12 Noroeste 24 Oeste 0 -- -- 39
2019-05-19 11:00:00 14 11 Noroeste 23 Noroeste 0 -- -- 47
2019-05-19 10:00:00 11.6 9 Noroeste 17 Noroeste 0 -- -- 56
2019-05-19 09:00:00 5.7 0 Calma 5 Sudoeste 0 -- -- 84
2019-05-19 08:00:00 2.4 0 Calma 5 Nordeste 0 -- -- 85
2019-05-19 07:00:00 2.1 0 Calma 3 Nordeste 0 -- -- 82
2019-05-19 06:00:00 3.1 0 Calma 5 Sudoeste 0 -- -- 80
2019-05-19 05:00:00 4 3 Sudoeste 8 Este 0 -- -- 78
2019-05-19 04:00:00 4.4 3 Este 7 Nordeste 0 -- -- 72
2019-05-19 03:00:00 4.7 4 Este 6 Nordeste 0 -- -- 69
2019-05-19 02:00:00 5.9 3 Norte 5 Norte 0 -- -- 64
2019-05-19 01:00:00 6.6 2 Sur 11 Norte 0 -- -- 63
2019-05-19 00:00:00 9.4 6 Nordeste 12 Norte 0 -- -- 50
2019-05-18 23:00:00 10.9 3 Norte 13 Norte 0 -- -- 45
2019-05-18 22:00:00 12.5 8 Norte 20 Oeste 0 -- -- 39
2019-05-18 21:00:00 13.9 12 Noroeste 29 Noroeste 0 -- -- 33
2019-05-18 20:00:00 15.8 16 Oeste 35 Noroeste 0 -- -- 30
2019-05-18 19:00:00 15.5 10 Noroeste 31 Noroeste 0 -- -- 31
2019-05-18 18:00:00 16.4 17 Noroeste 40 Oeste 0 -- -- 29
2019-05-18 17:00:00 16.8 18 Oeste 36 Oeste 0 -- -- 28
2019-05-18 16:00:00 16.6 18 Oeste 36 Oeste 0 -- -- 30
2019-05-18 15:00:00 14.9 19 Oeste 34 Oeste 0 -- -- 38
2019-05-18 14:00:00 16.1 19 Oeste 34 Oeste 0 -- -- 40
2019-05-18 13:00:00 14.6 16 Oeste 30 Oeste 0 -- -- 42
2019-05-18 12:00:00 13.6 11 Noroeste 26 Noroeste 0 -- -- 50
2019-05-18 11:00:00 12.4 14 Noroeste 25 Oeste 0 -- -- 58
2019-05-18 10:00:00 10.9 7 Norte 15 Norte 0 -- -- 64
2019-05-18 09:00:00 9.3 3 Norte 8 Norte 0 -- -- 70
2019-05-18 08:00:00 8.1 3 Norte 5 Norte 0 -- -- 74
2019-05-18 07:00:00 7.1 2 Norte 7 Nordeste 0 -- -- 80
2019-05-18 06:00:00 7 0 Calma 5 Nordeste 0 -- -- 79
2019-05-18 05:00:00 6.5 3 Nordeste 8 Este 0 -- -- 81
2019-05-18 04:00:00 6.3 4 Nordeste 9 Nordeste 0 -- -- 79
2019-05-18 03:00:00 6 0 Calma 5 Sudoeste 0 -- -- 82
2019-05-18 02:00:00 4.3 4 Sudoeste 5 Sudoeste 0 -- -- 84
2019-05-18 01:00:00 6.3 4 Nordeste 13 Nordeste 0 -- -- 73
2019-05-18 00:00:00 7.4 4 Nordeste 9 Norte 0 -- -- 70
2019-05-17 23:00:00 9.7 4 Nordeste 12 Noroeste 0 -- -- 61
2019-05-17 22:00:00 11.5 7 Norte 13 Noroeste 0 -- -- 54
2019-05-17 21:00:00 13.1 7 Norte 28 Noroeste 0 -- -- 50
2019-05-17 20:00:00 14.6 18 Noroeste 34 Noroeste 0 -- -- 42
2019-05-17 19:00:00 14.7 22 Noroeste 41 Oeste 0 -- -- 45
2019-05-17 18:00:00 14.7 17 Noroeste 33 Noroeste 0 -- -- 46
2019-05-17 17:00:00 14.8 20 Noroeste 41 Noroeste 0 -- -- 45
2019-05-17 16:00:00 15 23 Noroeste 44 Norte 0 -- -- 45
2019-05-17 15:00:00 14.3 22 Noroeste 46 Oeste 0 -- -- 48
2019-05-17 14:00:00 14.6 29 Noroeste 53 Noroeste 0 -- -- 47
2019-05-17 13:00:00 14.7 26 Noroeste 50 Noroeste 0 -- -- 47
2019-05-17 12:00:00 13.4 28 Noroeste 55 Noroeste 0 -- -- 52
2019-05-17 11:00:00 13 26 Noroeste 49 Oeste 0 -- -- 55
2019-05-17 10:00:00 11.4 29 Noroeste 58 Oeste 0 -- -- 60
2019-05-17 09:00:00 9.8 24 Oeste 44 Oeste 0 -- -- 66
2019-05-17 08:00:00 8.6 20 Noroeste 39 Oeste 0 -- -- 71
2019-05-17 07:00:00 8.4 18 Noroeste 34 Noroeste 0 -- -- 73
2019-05-17 06:00:00 8.9 20 Noroeste 38 Noroeste 0 -- -- 73
2019-05-17 05:00:00 9.6 21 Noroeste 42 Oeste 0 -- -- 70
2019-05-17 04:00:00 10.7 18 Noroeste 40 Oeste 0 -- -- 63
2019-05-17 03:00:00 13.4 20 Oeste 42 Noroeste 0 -- -- 52
2019-05-17 02:00:00 15.9 25 Oeste 47 Oeste 0 -- -- 54
2019-05-17 01:00:00 17.5 23 Sudoeste 39 Sudoeste 0 -- -- 39
2019-05-17 00:00:00 19.4 14 Sudoeste 32 Oeste 0 -- -- 32